Aviation Digital Data Service (ADDS)

Output produced by METARs form (2144 UTC 20 January 2021)
found at http://aviationweather.gov/metar/data/
 
KSNS 202053Z 33004KT 10SM CLR 22/M04 A3005 RMK AO2 SLP184 T02221044 58024
KSNS 201744Z 2018/2118 12008KT P6SM SKC 
     FM202100 31008KT P6SM SKC 
     FM210300 VRB03KT P6SM SKC 
     FM211200 25005KT P6SM FEW200
       
KMRY 202054Z 32006KT 10SM CLR 18/M01 A3006 RMK AO2 SLP192 T01781011 58018
KMRY 201744Z 2018/2118 20005KT P6SM SKC 
     FM202000 34006KT P6SM SKC 
     FM210200 VRB03KT P6SM SKC 
     FM210600 12004KT P6SM SKC 
     FM211200 17004KT P6SM FEW200
       
KSJC 202053Z 00000KT 10SM CLR 19/M07 A3008 RMK AO2 SLP185 T01891067 58022
KSJC 201744Z 2018/2118 15004KT P6SM SKC 
     FM202100 31008KT P6SM SKC 
     FM210200 29006KT P6SM SKC 
     FM210700 15003KT P6SM FEW200 
     FM211600 30004KT P6SM SCT200
       
KRHV 202047Z 00000KT 10SM SKC 18/M06 A3009
KSFO 202056Z 36003KT 10SM CLR 17/05 A3009 RMK AO2 SLP189 T01670050 58019
KSFO 202112Z 2021/2124 34004KT P6SM SKC 
     FM202200 30007KT P6SM SKC 
     FM210200 29006KT P6SM FEW200 
     FM210600 24006KT P6SM FEW200 
     FM211000 28003KT P6SM SCT200 
     FM212200 28007KT P6SM BKN200
       
KLVK 202053Z 06007KT 10SM CLR 19/M09 A3008 RMK AO2 SLP185 T01941094 58021
KLVK 201744Z 2018/2118 VRB03KT P6SM SKC 
     FM202000 06007KT P6SM SKC 
     FM210500 VRB03KT P6SM FEW200 
     FM211200 09004KT P6SM FEW200
       
KMCE 202053Z AUTO 34005KT 10SM CLR 17/M03 A3008 RMK AO2 SLP186 T01721033 58020
KMCE 201732Z 2018/2118 VRB03KT P6SM SKC